sensor_id;sensor_type;location;lat;lon;timestamp;temperature;humidity
55004;DHT22;40900;52.710;6.438;2022-10-04T00:01:10;13.50;99.90
55004;DHT22;40900;52.710;6.438;2022-10-04T00:03:41;13.50;99.90
55004;DHT22;40900;52.710;6.438;2022-10-04T00:06:16;13.40;99.90
55004;DHT22;40900;52.710;6.438;2022-10-04T00:09:00;13.40;99.90
55004;DHT22;40900;52.710;6.438;2022-10-04T00:11:33;13.40;99.90
55004;DHT22;40900;52.710;6.438;2022-10-04T00:14:05;13.30;99.90
55004;DHT22;40900;52.710;6.438;2022-10-04T00:16:34;13.30;99.90
55004;DHT22;40900;52.710;6.438;2022-10-04T00:19:25;13.30;99.90
55004;DHT22;40900;52.710;6.438;2022-10-04T00:29:35;13.30;99.90
55004;DHT22;40900;52.710;6.438;2022-10-04T00:34:48;13.20;99.90
55004;DHT22;40900;52.710;6.438;2022-10-04T00:37:19;13.20;99.90
55004;DHT22;40900;52.710;6.438;2022-10-04T00:39:47;13.20;99.90
55004;DHT22;40900;52.710;6.438;2022-10-04T00:45:17;13.20;99.90
55004;DHT22;40900;52.710;6.438;2022-10-04T00:50:14;13.20;99.90
55004;DHT22;40900;52.710;6.438;2022-10-04T00:52:47;13.20;99.90
55004;DHT22;40900;52.710;6.438;2022-10-04T00:55:34;13.20;99.90
55004;DHT22;40900;52.710;6.438;2022-10-04T00:58:04;13.20;99.90
55004;DHT22;40900;52.710;6.438;2022-10-04T01:00:32;13.30;99.90
55004;DHT22;40900;52.710;6.438;2022-10-04T01:03:05;13.20;99.90
55004;DHT22;40900;52.710;6.438;2022-10-04T01:05:35;13.30;99.90
55004;DHT22;40900;52.710;6.438;2022-10-04T01:08:15;13.30;99.90
55004;DHT22;40900;52.710;6.438;2022-10-04T01:16:25;13.40;99.90
55004;DHT22;40900;52.710;6.438;2022-10-04T01:18:52;13.40;99.90
55004;DHT22;40900;52.710;6.438;2022-10-04T01:29:01;13.40;99.90
55004;DHT22;40900;52.710;6.438;2022-10-04T01:31:28;13.40;99.90
55004;DHT22;40900;52.710;6.438;2022-10-04T01:33:56;13.40;99.90
55004;DHT22;40900;52.710;6.438;2022-10-04T01:36:22;13.50;99.90
55004;DHT22;40900;52.710;6.438;2022-10-04T01:38:48;13.40;99.90
55004;DHT22;40900;52.710;6.438;2022-10-04T01:41:20;13.40;99.90
55004;DHT22;40900;52.710;6.438;2022-10-04T01:43:49;13.40;99.90
55004;DHT22;40900;52.710;6.438;2022-10-04T01:46:21;13.40;99.90
55004;DHT22;40900;52.710;6.438;2022-10-04T01:48:47;13.40;99.90
55004;DHT22;40900;52.710;6.438;2022-10-04T01:51:15;13.30;99.90
55004;DHT22;40900;52.710;6.438;2022-10-04T01:56:39;13.40;99.90
55004;DHT22;40900;52.710;6.438;2022-10-04T01:59:48;13.40;99.90
55004;DHT22;40900;52.710;6.438;2022-10-04T02:02:25;13.30;99.90
55004;DHT22;40900;52.710;6.438;2022-10-04T02:04:56;13.30;99.90
55004;DHT22;40900;52.710;6.438;2022-10-04T02:07:25;13.20;99.90
55004;DHT22;40900;52.710;6.438;2022-10-04T02:09:58;13.20;99.90
55004;DHT22;40900;52.710;6.438;2022-10-04T02:12:26;13.20;99.90
55004;DHT22;40900;52.710;6.438;2022-10-04T02:14:54;13.20;99.90
55004;DHT22;40900;52.710;6.438;2022-10-04T02:17:26;13.10;99.90
55004;DHT22;40900;52.710;6.438;2022-10-04T02:19:53;13.10;99.90
55004;DHT22;40900;52.710;6.438;2022-10-04T02:22:19;13.00;99.90
55004;DHT22;40900;52.710;6.438;2022-10-04T02:24:48;13.00;99.90
55004;DHT22;40900;52.710;6.438;2022-10-04T02:27:14;13.00;99.90
55004;DHT22;40900;52.710;6.438;2022-10-04T02:29:40;12.90;99.90
55004;DHT22;40900;52.710;6.438;2022-10-04T02:32:07;12.90;99.90
55004;DHT22;40900;52.710;6.438;2022-10-04T02:34:52;12.90;99.90
55004;DHT22;40900;52.710;6.438;2022-10-04T02:37:21;12.90;99.90
55004;DHT22;40900;52.710;6.438;2022-10-04T02:40:12;12.80;99.90
55004;DHT22;40900;52.710;6.438;2022-10-04T02:42:38;12.80;99.90
55004;DHT22;40900;52.710;6.438;2022-10-04T02:45:59;12.80;99.90
55004;DHT22;40900;52.710;6.438;2022-10-04T02:51:17;12.70;99.90
55004;DHT22;40900;52.710;6.438;2022-10-04T02:53:55;12.60;99.90
55004;DHT22;40900;52.710;6.438;2022-10-04T02:56:24;12.60;99.90
55004;DHT22;40900;52.710;6.438;2022-10-04T02:58:51;12.60;99.90
55004;DHT22;40900;52.710;6.438;2022-10-04T03:01:25;12.40;99.90
55004;DHT22;40900;52.710;6.438;2022-10-04T03:03:53;12.40;99.90
55004;DHT22;40900;52.710;6.438;2022-10-04T03:06:21;12.40;99.90
55004;DHT22;40900;52.710;6.438;2022-10-04T03:09:00;12.30;99.90
55004;DHT22;40900;52.710;6.438;2022-10-04T03:11:29;12.30;99.90
55004;DHT22;40900;52.710;6.438;2022-10-04T03:13:58;12.20;99.90
55004;DHT22;40900;52.710;6.438;2022-10-04T03:16:25;12.20;99.90
55004;DHT22;40900;52.710;6.438;2022-10-04T03:18:52;12.20;99.90
55004;DHT22;40900;52.710;6.438;2022-10-04T03:21:20;12.20;99.90
55004;DHT22;40900;52.710;6.438;2022-10-04T03:23:49;12.10;99.90
55004;DHT22;40900;52.710;6.438;2022-10-04T03:26:28;12.10;99.90
55004;DHT22;40900;52.710;6.438;2022-10-04T03:28:57;12.10;99.90
55004;DHT22;40900;52.710;6.438;2022-10-04T03:31:25;12.00;99.90
55004;DHT22;40900;52.710;6.438;2022-10-04T03:33:54;12.00;99.90
55004;DHT22;40900;52.710;6.438;2022-10-04T03:36:22;12.00;99.90
55004;DHT22;40900;52.710;6.438;2022-10-04T03:38:52;12.00;99.90
55004;DHT22;40900;52.710;6.438;2022-10-04T03:41:21;12.00;99.90
55004;DHT22;40900;52.710;6.438;2022-10-04T03:43:48;11.90;99.90
55004;DHT22;40900;52.710;6.438;2022-10-04T03:46:16;11.90;99.90
55004;DHT22;40900;52.710;6.438;2022-10-04T03:48:46;11.90;99.90
55004;DHT22;40900;52.710;6.438;2022-10-04T03:51:22;11.90;99.90
55004;DHT22;40900;52.710;6.438;2022-10-04T03:54:00;11.90;99.90
55004;DHT22;40900;52.710;6.438;2022-10-04T03:56:30;11.90;99.90
55004;DHT22;40900;52.710;6.438;2022-10-04T03:58:58;11.90;99.90
55004;DHT22;40900;52.710;6.438;2022-10-04T04:01:39;11.90;99.90
55004;DHT22;40900;52.710;6.438;2022-10-04T04:10:02;11.80;99.90
55004;DHT22;40900;52.710;6.438;2022-10-04T04:12:42;11.80;99.90
55004;DHT22;40900;52.710;6.438;2022-10-04T04:15:10;11.80;99.90
55004;DHT22;40900;52.710;6.438;2022-10-04T04:17:44;11.80;99.90
55004;DHT22;40900;52.710;6.438;2022-10-04T04:20:29;11.80;99.90
55004;DHT22;40900;52.710;6.438;2022-10-04T04:25:46;11.70;99.90
55004;DHT22;40900;52.710;6.438;2022-10-04T04:34:19;11.60;99.90
55004;DHT22;40900;52.710;6.438;2022-10-04T04:36:45;11.60;99.90
55004;DHT22;40900;52.710;6.438;2022-10-04T04:39:20;11.60;99.90
55004;DHT22;40900;52.710;6.438;2022-10-04T04:42:00;11.50;99.90
55004;DHT22;40900;52.710;6.438;2022-10-04T04:44:27;11.50;99.90
55004;DHT22;40900;52.710;6.438;2022-10-04T04:46:54;11.40;99.90
55004;DHT22;40900;52.710;6.438;2022-10-04T04:49:21;11.40;99.90
55004;DHT22;40900;52.710;6.438;2022-10-04T04:51:50;11.40;99.90
55004;DHT22;40900;52.710;6.438;2022-10-04T04:54:21;11.30;99.90
55004;DHT22;40900;52.710;6.438;2022-10-04T04:56:50;11.30;99.90
55004;DHT22;40900;52.710;6.438;2022-10-04T04:59:18;11.30;99.90
55004;DHT22;40900;52.710;6.438;2022-10-04T05:01:46;11.30;99.90
55004;DHT22;40900;52.710;6.438;2022-10-04T05:04:17;11.20;99.90
55004;DHT22;40900;52.710;6.438;2022-10-04T05:06:45;11.30;99.90
55004;DHT22;40900;52.710;6.438;2022-10-04T05:09:29;11.30;99.90
55004;DHT22;40900;52.710;6.438;2022-10-04T05:12:02;11.20;99.90
55004;DHT22;40900;52.710;6.438;2022-10-04T05:14:33;11.30;99.90
55004;DHT22;40900;52.710;6.438;2022-10-04T05:16:59;11.20;99.90
55004;DHT22;40900;52.710;6.438;2022-10-04T05:19:28;11.20;99.90
55004;DHT22;40900;52.710;6.438;2022-10-04T05:21:57;11.20;99.90
55004;DHT22;40900;52.710;6.438;2022-10-04T05:24:32;11.20;99.90
55004;DHT22;40900;52.710;6.438;2022-10-04T05:27:14;11.20;99.90
55004;DHT22;40900;52.710;6.438;2022-10-04T05:33:06;11.10;99.90
55004;DHT22;40900;52.710;6.438;2022-10-04T05:38:29;11.00;99.90
55004;DHT22;40900;52.710;6.438;2022-10-04T05:41:00;10.90;99.90
55004;DHT22;40900;52.710;6.438;2022-10-04T05:43:35;11.00;99.90
55004;DHT22;40900;52.710;6.438;2022-10-04T05:48:57;10.90;99.90
55004;DHT22;40900;52.710;6.438;2022-10-04T05:51:29;10.90;99.90
55004;DHT22;40900;52.710;6.438;2022-10-04T05:53:58;10.90;99.90
55004;DHT22;40900;52.710;6.438;2022-10-04T06:02:23;11.00;99.90
55004;DHT22;40900;52.710;6.438;2022-10-04T06:10:28;11.00;99.90
55004;DHT22;40900;52.710;6.438;2022-10-04T06:13:26;11.00;99.90
55004;DHT22;40900;52.710;6.438;2022-10-04T06:21:24;11.00;99.90
55004;DHT22;40900;52.710;6.438;2022-10-04T06:24:07;11.00;99.90
55004;DHT22;40900;52.710;6.438;2022-10-04T06:26:49;11.10;99.90
55004;DHT22;40900;52.710;6.438;2022-10-04T06:29:20;11.10;99.90
55004;DHT22;40900;52.710;6.438;2022-10-04T06:31:58;11.10;99.90
55004;DHT22;40900;52.710;6.438;2022-10-04T06:42:53;11.20;99.90
55004;DHT22;40900;52.710;6.438;2022-10-04T06:48:37;11.30;99.90
55004;DHT22;40900;52.710;6.438;2022-10-04T06:56:34;11.30;99.90
55004;DHT22;40900;52.710;6.438;2022-10-04T07:02:01;11.40;99.90
55004;DHT22;40900;52.710;6.438;2022-10-04T07:10:39;13.90;99.90
55004;DHT22;40900;52.710;6.438;2022-10-04T07:12:46;14.90;99.90
55004;DHT22;40900;52.710;6.438;2022-10-04T07:15:24;15.90;99.90
55004;DHT22;40900;52.710;6.438;2022-10-04T07:17:52;16.30;99.90
55004;DHT22;40900;52.710;6.438;2022-10-04T07:20:27;16.40;99.90
55004;DHT22;40900;52.710;6.438;2022-10-04T07:23:14;16.90;99.90
55004;DHT22;40900;52.710;6.438;2022-10-04T07:25:51;16.60;99.90
55004;DHT22;40900;52.710;6.438;2022-10-04T07:28:30;15.60;99.90
55004;DHT22;40900;52.710;6.438;2022-10-04T07:31:27;15.00;99.90
55004;DHT22;40900;52.710;6.438;2022-10-04T07:33:58;14.60;99.90
55004;DHT22;40900;52.710;6.438;2022-10-04T07:39:17;14.30;99.90
55004;DHT22;40900;52.710;6.438;2022-10-04T07:41:50;14.50;99.90
55004;DHT22;40900;52.710;6.438;2022-10-04T07:46:57;16.40;99.90
55004;DHT22;40900;52.710;6.438;2022-10-04T07:49:25;16.70;99.90
55004;DHT22;40900;52.710;6.438;2022-10-04T08:00:59;15.30;99.90
55004;DHT22;40900;52.710;6.438;2022-10-04T08:03:49;15.10;99.90
55004;DHT22;40900;52.710;6.438;2022-10-04T08:06:33;14.70;99.90
55004;DHT22;40900;52.710;6.438;2022-10-04T08:11:57;14.30;99.90
55004;DHT22;40900;52.710;6.438;2022-10-04T08:19:54;14.40;99.90
55004;DHT22;40900;52.710;6.438;2022-10-04T08:22:54;15.00;99.90
55004;DHT22;40900;52.710;6.438;2022-10-04T08:31:39;17.40;99.90
55004;DHT22;40900;52.710;6.438;2022-10-04T09:16:46;22.90;99.90
55004;DHT22;40900;52.710;6.438;2022-10-04T09:19:20;23.50;99.90
55004;DHT22;40900;52.710;6.438;2022-10-04T09:22:08;23.80;99.90
55004;DHT22;40900;52.710;6.438;2022-10-04T09:27:33;23.30;99.90
55004;DHT22;40900;52.710;6.438;2022-10-04T09:35:42;23.50;99.90
55004;DHT22;40900;52.710;6.438;2022-10-04T10:03:22;23.20;98.70
55004;DHT22;40900;52.710;6.438;2022-10-04T10:06:02;23.50;99.20
55004;DHT22;40900;52.710;6.438;2022-10-04T10:11:52;23.20;99.50
55004;DHT22;40900;52.710;6.438;2022-10-04T10:15:01;23.30;98.60
55004;DHT22;40900;52.710;6.438;2022-10-04T10:26:08;23.10;98.90
55004;DHT22;40900;52.710;6.438;2022-10-04T10:29:18;23.90;98.20
55004;DHT22;40900;52.710;6.438;2022-10-04T10:31:58;24.00;98.00
55004;DHT22;40900;52.710;6.438;2022-10-04T10:35:05;24.40;97.60
55004;DHT22;40900;52.710;6.438;2022-10-04T10:46:48;24.40;97.10
55004;DHT22;40900;52.710;6.438;2022-10-04T10:49:42;23.40;97.60
55004;DHT22;40900;52.710;6.438;2022-10-04T11:23:57;21.50;99.70
55004;DHT22;40900;52.710;6.438;2022-10-04T11:57:39;19.50;99.90
55004;DHT22;40900;52.710;6.438;2022-10-04T12:00:18;19.50;99.90
55004;DHT22;40900;52.710;6.438;2022-10-04T12:03:06;19.40;99.90
55004;DHT22;40900;52.710;6.438;2022-10-04T12:13:38;19.50;99.90
55004;DHT22;40900;52.710;6.438;2022-10-04T12:16:44;19.60;99.90
55004;DHT22;40900;52.710;6.438;2022-10-04T12:22:28;19.50;99.90
55004;DHT22;40900;52.710;6.438;2022-10-04T12:25:25;19.60;99.90
55004;DHT22;40900;52.710;6.438;2022-10-04T12:28:06;19.70;99.90
55004;DHT22;40900;52.710;6.438;2022-10-04T12:33:23;19.90;99.90
55004;DHT22;40900;52.710;6.438;2022-10-04T12:44:45;20.00;99.90
55004;DHT22;40900;52.710;6.438;2022-10-04T12:53:05;19.60;99.90
55004;DHT22;40900;52.710;6.438;2022-10-04T13:18:56;19.40;99.90
55004;DHT22;40900;52.710;6.438;2022-10-04T13:27:02;19.40;99.90
55004;DHT22;40900;52.710;6.438;2022-10-04T13:29:44;19.00;99.90
55004;DHT22;40900;52.710;6.438;2022-10-04T13:32:19;19.00;99.90
55004;DHT22;40900;52.710;6.438;2022-10-04T13:35:00;19.00;99.90
55004;DHT22;40900;52.710;6.438;2022-10-04T13:37:36;19.10;99.90
55004;DHT22;40900;52.710;6.438;2022-10-04T13:40:29;19.20;99.90
55004;DHT22;40900;52.710;6.438;2022-10-04T13:55:00;19.50;99.90
55004;DHT22;40900;52.710;6.438;2022-10-04T13:58:08;19.50;99.90
55004;DHT22;40900;52.710;6.438;2022-10-04T14:04:31;19.20;99.90
55004;DHT22;40900;52.710;6.438;2022-10-04T14:06:51;19.10;99.90
55004;DHT22;40900;52.710;6.438;2022-10-04T14:09:40;18.90;99.90
55004;DHT22;40900;52.710;6.438;2022-10-04T14:44:29;18.80;99.90
55004;DHT22;40900;52.710;6.438;2022-10-04T14:51:54;18.80;99.90
55004;DHT22;40900;52.710;6.438;2022-10-04T15:10:51;18.60;99.90
55004;DHT22;40900;52.710;6.438;2022-10-04T15:13:20;18.60;99.90
55004;DHT22;40900;52.710;6.438;2022-10-04T15:16:09;18.50;99.90
55004;DHT22;40900;52.710;6.438;2022-10-04T15:24:24;18.30;99.90
55004;DHT22;40900;52.710;6.438;2022-10-04T15:35:37;18.10;99.90
55004;DHT22;40900;52.710;6.438;2022-10-04T15:41:20;18.00;99.90
55004;DHT22;40900;52.710;6.438;2022-10-04T15:50:02;18.20;99.90
55004;DHT22;40900;52.710;6.438;2022-10-04T15:53:11;18.20;99.90
55004;DHT22;40900;52.710;6.438;2022-10-04T15:56:00;18.20;99.90
55004;DHT22;40900;52.710;6.438;2022-10-04T16:01:39;18.20;99.90
55004;DHT22;40900;52.710;6.438;2022-10-04T16:06:57;18.20;99.90
55004;DHT22;40900;52.710;6.438;2022-10-04T16:15:10;18.10;99.90
55004;DHT22;40900;52.710;6.438;2022-10-04T16:20:29;17.90;99.90
55004;DHT22;40900;52.710;6.438;2022-10-04T16:25:46;17.70;99.90
55004;DHT22;40900;52.710;6.438;2022-10-04T16:28:37;17.60;99.90
55004;DHT22;40900;52.710;6.438;2022-10-04T16:31:37;17.50;99.90
55004;DHT22;40900;52.710;6.438;2022-10-04T16:34:33;17.50;99.90
55004;DHT22;40900;52.710;6.438;2022-10-04T16:47:59;17.40;99.90
55004;DHT22;40900;52.710;6.438;2022-10-04T16:56:25;17.20;99.90
55004;DHT22;40900;52.710;6.438;2022-10-04T16:58:55;17.10;99.90
55004;DHT22;40900;52.710;6.438;2022-10-04T17:17:45;16.80;99.90
55004;DHT22;40900;52.710;6.438;2022-10-04T17:26:24;16.70;99.90
55004;DHT22;40900;52.710;6.438;2022-10-04T17:28:56;16.80;99.90
55004;DHT22;40900;52.710;6.438;2022-10-04T17:31:55;16.70;99.90
55004;DHT22;40900;52.710;6.438;2022-10-04T17:37:44;16.70;99.90
55004;DHT22;40900;52.710;6.438;2022-10-04T17:48:13;16.50;99.90
55004;DHT22;40900;52.710;6.438;2022-10-04T17:53:50;16.40;99.90
55004;DHT22;40900;52.710;6.438;2022-10-04T17:57:07;16.40;99.90
55004;DHT22;40900;52.710;6.438;2022-10-04T17:59:41;16.40;99.90
55004;DHT22;40900;52.710;6.438;2022-10-04T18:02:19;16.40;99.90
55004;DHT22;40900;52.710;6.438;2022-10-04T18:04:54;16.40;99.90
55004;DHT22;40900;52.710;6.438;2022-10-04T18:07:31;16.40;99.90
55004;DHT22;40900;52.710;6.438;2022-10-04T18:10:00;16.40;99.90
55004;DHT22;40900;52.710;6.438;2022-10-04T18:15:31;16.40;99.90
55004;DHT22;40900;52.710;6.438;2022-10-04T18:18:16;16.40;99.90
55004;DHT22;40900;52.710;6.438;2022-10-04T18:23:28;16.40;99.90
55004;DHT22;40900;52.710;6.438;2022-10-04T18:26:10;16.30;99.90
55004;DHT22;40900;52.710;6.438;2022-10-04T18:28:42;16.30;99.90
55004;DHT22;40900;52.710;6.438;2022-10-04T18:34:00;16.30;99.90
55004;DHT22;40900;52.710;6.438;2022-10-04T18:36:28;16.30;99.90
55004;DHT22;40900;52.710;6.438;2022-10-04T18:39:00;16.30;99.90
55004;DHT22;40900;52.710;6.438;2022-10-04T18:41:28;16.30;99.90
55004;DHT22;40900;52.710;6.438;2022-10-04T18:44:16;16.30;99.90
55004;DHT22;40900;52.710;6.438;2022-10-04T18:46:45;16.30;99.90
55004;DHT22;40900;52.710;6.438;2022-10-04T18:55:06;16.20;99.90
55004;DHT22;40900;52.710;6.438;2022-10-04T18:57:40;16.30;99.90
55004;DHT22;40900;52.710;6.438;2022-10-04T19:00:39;16.20;99.90
55004;DHT22;40900;52.710;6.438;2022-10-04T19:03:45;16.30;99.90
55004;DHT22;40900;52.710;6.438;2022-10-04T19:06:21;16.30;99.90
55004;DHT22;40900;52.710;6.438;2022-10-04T19:09:50;16.20;99.90
55004;DHT22;40900;52.710;6.438;2022-10-04T19:14:33;16.20;99.90
55004;DHT22;40900;52.710;6.438;2022-10-04T19:17:28;16.20;99.90
55004;DHT22;40900;52.710;6.438;2022-10-04T19:20:10;16.20;99.90
55004;DHT22;40900;52.710;6.438;2022-10-04T19:28:19;16.10;99.90
55004;DHT22;40900;52.710;6.438;2022-10-04T19:30:59;16.10;99.90
55004;DHT22;40900;52.710;6.438;2022-10-04T19:35:59;16.10;99.90
55004;DHT22;40900;52.710;6.438;2022-10-04T19:41:47;16.10;99.90
55004;DHT22;40900;52.710;6.438;2022-10-04T19:47:19;16.00;99.90
55004;DHT22;40900;52.710;6.438;2022-10-04T19:52:58;16.10;99.90
55004;DHT22;40900;52.710;6.438;2022-10-04T19:55:35;16.00;99.90
55004;DHT22;40900;52.710;6.438;2022-10-04T20:00:49;16.00;99.90
55004;DHT22;40900;52.710;6.438;2022-10-04T20:03:14;15.90;99.90
55004;DHT22;40900;52.710;6.438;2022-10-04T20:05:51;15.90;99.90
55004;DHT22;40900;52.710;6.438;2022-10-04T20:11:45;15.90;99.90
55004;DHT22;40900;52.710;6.438;2022-10-04T20:21:55;15.80;99.90
55004;DHT22;40900;52.710;6.438;2022-10-04T20:27:03;15.90;99.90
55004;DHT22;40900;52.710;6.438;2022-10-04T20:32:10;15.80;99.90
55004;DHT22;40900;52.710;6.438;2022-10-04T20:34:59;15.80;99.90
55004;DHT22;40900;52.710;6.438;2022-10-04T20:45:50;15.80;99.90
55004;DHT22;40900;52.710;6.438;2022-10-04T20:48:35;15.80;99.90
55004;DHT22;40900;52.710;6.438;2022-10-04T20:51:08;15.80;99.90
55004;DHT22;40900;52.710;6.438;2022-10-04T20:53:41;15.80;99.90
55004;DHT22;40900;52.710;6.438;2022-10-04T20:58:35;15.80;99.90
55004;DHT22;40900;52.710;6.438;2022-10-04T21:01:22;15.80;99.90
55004;DHT22;40900;52.710;6.438;2022-10-04T21:04:22;15.70;99.90
55004;DHT22;40900;52.710;6.438;2022-10-04T21:06:59;15.80;99.90
55004;DHT22;40900;52.710;6.438;2022-10-04T21:09:27;15.70;99.90
55004;DHT22;40900;52.710;6.438;2022-10-04T21:11:54;15.80;99.90
55004;DHT22;40900;52.710;6.438;2022-10-04T21:14:27;15.70;99.90
55004;DHT22;40900;52.710;6.438;2022-10-04T21:16:54;15.80;99.90
55004;DHT22;40900;52.710;6.438;2022-10-04T21:22:05;15.70;99.90
55004;DHT22;40900;52.710;6.438;2022-10-04T21:24:40;15.70;99.90
55004;DHT22;40900;52.710;6.438;2022-10-04T21:27:09;15.70;99.90
55004;DHT22;40900;52.710;6.438;2022-10-04T21:29:36;15.70;99.90
55004;DHT22;40900;52.710;6.438;2022-10-04T21:32:02;15.70;99.90
55004;DHT22;40900;52.710;6.438;2022-10-04T21:34:28;15.70;99.90
55004;DHT22;40900;52.710;6.438;2022-10-04T21:36:54;15.70;99.90
55004;DHT22;40900;52.710;6.438;2022-10-04T21:39:20;15.70;99.90
55004;DHT22;40900;52.710;6.438;2022-10-04T21:41:45;15.70;99.90
55004;DHT22;40900;52.710;6.438;2022-10-04T21:44:11;15.70;99.90
55004;DHT22;40900;52.710;6.438;2022-10-04T21:46:37;15.70;99.90
55004;DHT22;40900;52.710;6.438;2022-10-04T21:49:03;15.70;99.90
55004;DHT22;40900;52.710;6.438;2022-10-04T21:51:29;15.70;99.90
55004;DHT22;40900;52.710;6.438;2022-10-04T21:54:03;15.70;99.90
55004;DHT22;40900;52.710;6.438;2022-10-04T21:56:29;15.80;99.90
55004;DHT22;40900;52.710;6.438;2022-10-04T21:58:55;15.70;99.90
55004;DHT22;40900;52.710;6.438;2022-10-04T22:01:20;15.70;99.90
55004;DHT22;40900;52.710;6.438;2022-10-04T22:03:46;15.70;99.90
55004;DHT22;40900;52.710;6.438;2022-10-04T22:06:12;15.70;99.90
55004;DHT22;40900;52.710;6.438;2022-10-04T22:08:38;15.60;99.90
55004;DHT22;40900;52.710;6.438;2022-10-04T22:11:03;15.70;99.90
55004;DHT22;40900;52.710;6.438;2022-10-04T22:13:29;15.70;99.90
55004;DHT22;40900;52.710;6.438;2022-10-04T22:15:55;15.70;99.90
55004;DHT22;40900;52.710;6.438;2022-10-04T22:18:20;15.70;99.90
55004;DHT22;40900;52.710;6.438;2022-10-04T22:20:46;15.70;99.90
55004;DHT22;40900;52.710;6.438;2022-10-04T22:23:20;15.70;99.90
55004;DHT22;40900;52.710;6.438;2022-10-04T22:25:46;15.70;99.90
55004;DHT22;40900;52.710;6.438;2022-10-04T22:28:24;15.70;99.90
55004;DHT22;40900;52.710;6.438;2022-10-04T22:30:51;15.70;99.90
55004;DHT22;40900;52.710;6.438;2022-10-04T22:36:16;15.70;99.90
55004;DHT22;40900;52.710;6.438;2022-10-04T22:38:54;15.70;99.90
55004;DHT22;40900;52.710;6.438;2022-10-04T22:41:21;15.60;99.90
55004;DHT22;40900;52.710;6.438;2022-10-04T22:43:48;15.60;99.90
55004;DHT22;40900;52.710;6.438;2022-10-04T22:46:17;15.60;99.90
55004;DHT22;40900;52.710;6.438;2022-10-04T22:48:45;15.70;99.90
55004;DHT22;40900;52.710;6.438;2022-10-04T22:51:12;15.70;99.90
55004;DHT22;40900;52.710;6.438;2022-10-04T22:53:45;15.60;99.90
55004;DHT22;40900;52.710;6.438;2022-10-04T22:56:13;15.60;99.90
55004;DHT22;40900;52.710;6.438;2022-10-04T22:58:39;15.60;99.90
55004;DHT22;40900;52.710;6.438;2022-10-04T23:01:14;15.60;99.90
55004;DHT22;40900;52.710;6.438;2022-10-04T23:03:43;15.60;99.90
55004;DHT22;40900;52.710;6.438;2022-10-04T23:06:09;15.60;99.90
55004;DHT22;40900;52.710;6.438;2022-10-04T23:08:39;15.60;99.90
55004;DHT22;40900;52.710;6.438;2022-10-04T23:11:05;15.60;99.90
55004;DHT22;40900;52.710;6.438;2022-10-04T23:13:31;15.50;99.90
55004;DHT22;40900;52.710;6.438;2022-10-04T23:16:00;15.50;99.90
55004;DHT22;40900;52.710;6.438;2022-10-04T23:18:27;15.60;99.90
55004;DHT22;40900;52.710;6.438;2022-10-04T23:20:57;15.60;99.90
55004;DHT22;40900;52.710;6.438;2022-10-04T23:23:25;15.50;99.90
55004;DHT22;40900;52.710;6.438;2022-10-04T23:25:53;15.50;99.90
55004;DHT22;40900;52.710;6.438;2022-10-04T23:28:19;15.50;99.90
55004;DHT22;40900;52.710;6.438;2022-10-04T23:30:54;15.50;99.90
55004;DHT22;40900;52.710;6.438;2022-10-04T23:33:22;15.50;99.90
55004;DHT22;40900;52.710;6.438;2022-10-04T23:35:49;15.50;99.90
55004;DHT22;40900;52.710;6.438;2022-10-04T23:38:18;15.40;99.90
55004;DHT22;40900;52.710;6.438;2022-10-04T23:40:45;15.40;99.90
55004;DHT22;40900;52.710;6.438;2022-10-04T23:43:16;15.40;99.90
55004;DHT22;40900;52.710;6.438;2022-10-04T23:45:43;15.40;99.90
55004;DHT22;40900;52.710;6.438;2022-10-04T23:48:11;15.50;99.90
55004;DHT22;40900;52.710;6.438;2022-10-04T23:50:40;15.40;99.90
55004;DHT22;40900;52.710;6.438;2022-10-04T23:53:17;15.40;99.90
55004;DHT22;40900;52.710;6.438;2022-10-04T23:55:44;15.50;99.90
55004;DHT22;40900;52.710;6.438;2022-10-04T23:58:14;15.50;99.90
